• Join FlightAware (Why Join?)
  • Login
  • US Flag 
08:52PM EDT


 

Airport Tracker/Info


-or-


 

Live Flight TrackerFlight Track Log ✈ N101FG ✈ 23-Dec-2013 ✈ KGNV - KRDU

Flight Track Log - Related Links

Times and Time Zones

All times are in EST time to prevent confusion due to time zone crossing. See the N101FG flight status page for this flight to view local times or setup timezone preferences in your user account.

Time Position Orientation Groundspeed Altitude Reporting Facility
EST Latitude Longitude Course Direction KTS MPH feet Rate Location/Type
04:39AM 29.6844 -82.2592 90° East 120 138 800  Level Jacksonville Center
04:39AM 29.6844 -82.2542 90° East 121 139 900 1,560 Climbing Jacksonville Center
04:41AM 29.7197 -82.2231 37° Northeast 222 255 2,600 1,920 Climbing Jacksonville Center
04:42AM 29.8117 -82.1961 14° North 259 298 5,500 2,160 Climbing Jacksonville Center
04:43AM 29.8825 -82.1764 14° North 259 298 7,700 2,040 Climbing Jacksonville Center
04:44AM 29.9575 -82.1567 13° North 264 304 9,600 1,800 Climbing Jacksonville Center
04:45AM 30.0347 -82.1344 14° North 270 311 11,400 1,800 Climbing Jacksonville Center
04:46AM 30.1117 -82.1144 13° North 279 321 13,200 1,620 Climbing Jacksonville Center
04:47AM 30.1908 -82.0922 14° North 284 327 14,700 1,260 Climbing Jacksonville Center
04:48AM 30.2658 -82.0700 14° North 301 346 15,800 1,200 Climbing Jacksonville Center
04:49AM 30.3472 -82.0478 13° North 301 346 17,200 1,200 Climbing Jacksonville Center
04:50AM 30.4328 -82.0228 14° North 295 339 18,200 1,020 Climbing Jacksonville Center
04:51AM 30.5181 -82.0003 13° North 300 345 19,300 1,140 Climbing Jacksonville Center
04:52AM 30.6078 -81.9803 11° North 315 362 20,500 1,140 Climbing Jacksonville Center
04:53AM 30.7017 -81.9553 13° North 325 374 21,600 1,140 Climbing Jacksonville Center
04:54AM 30.7953 -81.9300 13° North 330 380 22,800 1,200 Climbing Jacksonville Center
04:55AM 30.8911 -81.9025 14° North 342 394 24,000 1,080 Climbing Jacksonville Center
04:56AM 30.9847 -81.8675 18° North 342 394 25,000 1,020 Climbing Jacksonville Center
04:57AM 31.0783 -81.8228 22° Northeast 348 400 26,100 1,200 Climbing Jacksonville Center
04:58AM 31.1742 -81.7781 22° Northeast 353 406 27,400 1,260 Climbing Jacksonville Center
04:59AM 31.2656 -81.7381 21° North 353 406 28,700 1,200 Climbing Jacksonville Center
05:00AM 31.3653 -81.6931 21° North 346 398 29,900 900 Climbing Jacksonville Center
05:01AM 31.4486 -81.6556 21° North 351 404 30,600 540 Climbing Jacksonville Center
05:02AM 31.5544 -81.6028 23° Northeast 363 418 31,000 180 Climbing Jacksonville Center
05:03AM 31.6583 -81.5575 20° North 377 434 31,000  Level Jacksonville Center
05:04AM 31.7539 -81.5147 21° North 402 463 31,000  Level Jacksonville Center
05:05AM 31.8725 -81.4564 23° Northeast 409 471 31,000  Level Jacksonville Center
05:06AM 31.9825 -81.4083 20° North 409 471 31,000  Level Jacksonville Center
05:07AM 32.0925 -81.3575 21° North 423 487 31,000  Level Jacksonville Center
05:08AM 32.2047 -81.3039 22° Northeast 428 493 31,000  Level Jacksonville Center
05:09AM 32.3125 -81.2531 22° Northeast 423 487 31,000  Level Jacksonville Center
05:10AM 32.4225 -81.2042 21° North 423 487 31,000  Level Jacksonville Center
05:11AM 32.5242 -81.1556 22° Northeast 423 487 31,000  Level Jacksonville Center
05:12AM 32.6444 -81.0989 22° Northeast 422 486 31,000  Level Jacksonville Center
05:13AM 32.7544 -81.0475 21° North 422 486 31,000  Level Jacksonville Center
05:14AM 32.8642 -80.9956 22° Northeast 428 493 31,000  Level Jacksonville Center
05:15AM 32.9761 -80.9414 22° Northeast 428 493 31,000  Level Jacksonville Center
05:16AM 33.0858 -80.8894 22° Northeast 428 493 31,000  Level Jacksonville Center
05:17AM 33.1936 -80.8397 21° North 423 487 31,000  Level Jacksonville Center
05:18AM 33.3056 -80.7875 21° North 423 487 31,000  Level Jacksonville Center
05:19AM 33.4153 -80.7350 22° Northeast 423 487 31,000  Level Jacksonville Center
05:20AM 33.5269 -80.6800 22° Northeast 423 487 31,000  Level Jacksonville Center
05:21AM 33.6367 -80.6250 23° Northeast 423 487 31,000  Level Jacksonville Center
05:22AM 33.7461 -80.5722 22° Northeast 423 487 31,000  Level Jacksonville Center
05:23AM 33.8578 -80.5192 22° Northeast 428 493 31,000  Level Jacksonville Center
05:24AM 33.9694 -80.4661 22° Northeast 428 493 31,000  Level Jacksonville Center
05:25AM 34.0811 -80.4103 22° Northeast 428 493 31,000 -960 Level Jacksonville Center
05:27AM 34.3128 -80.2986 22° Northeast 436 502 28,100 -1,860 Descending Washington Center
05:28AM 34.4342 -80.2375 23° Northeast 449 517 25,500 -2,520 Descending Washington Center
05:29AM 34.5489 -80.1811 22° Northeast 454 522 23,100 -1,260 Descending Washington Center
05:30AM 34.6661 -80.1219 23° Northeast 454 522 23,000 -60 Descending Washington Center
05:31AM 34.7786 -80.0650 23° Northeast 443 510 23,000  Level Washington Center
05:32AM 34.8653 -79.9811 38° Northeast 437 503 23,000  Level Washington Center
05:33AM 34.9547 -79.8772 44° Northeast 437 503 23,000  Level Washington Center
05:34AM 35.0436 -79.7778 42° Northeast 432 497 23,000  Level Washington Center
05:35AM 35.1347 -79.6811 41° Northeast 427 491 23,000 -960 Level Washington Center
05:35AM 35.1933 -79.6153 43° Northeast 445 512 21,600 -2,280 Descending Washington Center
05:36AM 35.2278 -79.5814 39° Northeast 432 497 20,700 -3,600 Descending Washington Center
05:36AM 35.2789 -79.5483 28° Northeast 438 504 18,700 -4,380 Descending Washington Center
05:37AM 35.3431 -79.5031 30° Northeast 432 497 16,400 -3,780 Descending Washington Center
05:37AM 35.3772 -79.4769 32° Northeast 410 472 14,900 -3,720 Descending Washington Center
05:38AM 35.4372 -79.4339 30° Northeast 411 473 12,700 -3,420 Descending Washington Center
05:38AM 35.4861 -79.4006 29° Northeast 377 434 11,100 -2,520 Descending Washington Center
05:39AM 35.5186 -79.3611 45° Northeast 373 429 10,100 -1,200 Descending Washington Center
05:39AM 35.5406 -79.3292 50° Northeast 329 379 10,000 -120 Descending Washington Center
05:40AM 35.5778 -79.2719 51° Northeast 340 391 10,000  Level Washington Center
05:40AM 35.5956 -79.2372 58° Northeast 334 384 10,000 -120 Level Washington Center
05:41AM 35.6347 -79.1828 48° Northeast 340 391 9,900 -600 Descending Washington Center
05:41AM 35.6689 -79.1586 30° Northeast 336 387 9,400 -1,080 Descending Washington Center
05:42AM 35.7056 -79.1244 37° Northeast 324 373 8,800 -1,140 Descending Washington Center
05:42AM 35.7439 -79.0903 36° Northeast 332 382 8,300 -840 Descending Washington Center
05:43AM 35.7764 -79.0558 41° Northeast 324 373 8,000 -300 Descending Washington Center
05:43AM 35.8169 -79.0167 38° Northeast 330 380 8,000  Level Washington Center
05:44AM 35.8494 -78.9822 41° Northeast 329 379 8,000 -720 Level Washington Center
05:44AM 35.8900 -78.9481 34° Northeast 331 381 7,300 -1,500 Descending Washington Center
05:45AM 35.9181 -78.9158 43° Northeast 329 379 6,500 -1,980 Descending Washington Center
05:45AM 35.9567 -78.8792 38° Northeast 306 352 5,300 -2,100 Descending Washington Center
05:46AM 36.0231 -78.8100 40° Northeast 311 358 3,400 -1,200 Descending Washington Center
05:47AM 36.0586 -78.7292 61° Northeast 264 304 3,000 -420 Descending Washington Center
05:48AM 36.0439 -78.6592 105° East 195 224 2,600 -420 Descending Washington Center
05:49AM 36.0067 -78.6450 163° South 128 147 2,200 -240 Descending Washington Center
05:50AM 35.9767 -78.6747 219° Southwest 133 153 2,200 -60 Level Washington Center
05:51AM 35.9550 -78.7044 228° Southwest 107 123 2,100 -300 Descending Washington Center
05:52AM 35.9356 -78.7294 226° Southwest 91 105 1,600 -540 Descending Washington Center
05:53AM 35.9161 -78.7517 223° Southwest 91 105 1,100 -540 Descending Washington Center
05:54AM 35.8967 -78.7742 223° Southwest 95 109 600 -540 Descending Washington Center